Time;durP1;ratioP1;P1;durP2;ratioP2;P2;SDS_P1;SDS_P2;PMS_P1;PMS_P2;Temp;Humidity;BMP_temperature;BMP_pressure;BME280_temperature;BME280_humidity;BME280_pressure;Samples;Min_cycle;Max_cycle;Signal;HPM_P1;HPM_P2
2023/07/21 00:02:27;;;;;;;3.90;1.88;;;19.10;1.00;;;;;;5036727;28;20057;-77
2023/07/21 00:04:53;;;;;;;4.45;1.38;;;19.20;1.00;;;;;;5036047;28;20041;-77
2023/07/21 00:07:19;;;;;;;2.20;1.70;;;19.30;1.00;;;;;;5032283;28;20033;-77
2023/07/21 00:09:46;;;;;;;3.25;1.70;;;19.30;1.00;;;;;;5038855;28;20029;-79
2023/07/21 00:12:12;;;;;;;5.03;2.28;;;19.40;1.00;;;;;;5032373;28;20042;-79
2023/07/21 00:14:38;;;;;;;4.72;1.70;;;19.30;1.00;;;;;;5033002;28;20048;-77
2023/07/21 00:17:05;;;;;;;4.05;2.33;;;19.20;1.00;;;;;;5036219;28;20029;-79
2023/07/21 00:19:31;;;;;;;2.67;1.73;;;19.10;1.00;;;;;;5038054;28;20033;-78
2023/07/21 00:21:57;;;;;;;3.67;1.73;;;19.00;1.00;;;;;;5033558;28;20367;-76
2023/07/21 00:24:24;;;;;;;4.00;1.85;;;19.00;1.00;;;;;;5032173;28;20044;-78
2023/07/21 00:26:52;;;;;;;5.80;2.05;;;18.90;1.00;;;;;;5033110;28;20026;-78
2023/07/21 00:29:19;;;;;;;5.45;2.53;;;18.80;1.00;;;;;;5036898;28;20039;-76
2023/07/21 00:31:49;;;;;;;4.43;2.00;;;18.70;1.00;;;;;;5039771;28;20049;-78
2023/07/21 00:34:15;;;;;;;4.20;2.33;;;18.70;1.00;;;;;;5036433;28;20040;-79
2023/07/21 00:36:41;;;;;;;4.43;2.15;;;18.60;1.00;;;;;;5034995;28;20040;-83
2023/07/21 00:39:08;;;;;;;3.20;2.22;;;18.60;1.00;;;;;;5037972;28;20151;-77
2023/07/21 00:41:34;;;;;;;2.38;1.75;;;18.50;4.60;;;;;;5035411;28;20040;-81
2023/07/21 00:44:01;;;;;;;2.97;2.20;;;18.50;1.00;;;;;;5051137;28;20040;-76
2023/07/21 00:46:27;;;;;;;3.53;2.28;;;18.40;1.00;;;;;;5038012;28;20033;-78
2023/07/21 00:48:53;;;;;;;2.75;1.98;;;18.40;1.00;;;;;;5047838;28;20041;-78
2023/07/21 00:51:22;;;;;;;3.65;1.85;;;18.40;1.00;;;;;;5036037;28;20041;-77
2023/07/21 00:53:50;;;;;;;3.45;2.20;;;18.40;2.30;;;;;;5038631;28;20040;-79
2023/07/21 00:56:16;;;;;;;3.40;2.63;;;18.40;3.90;;;;;;5030957;28;20041;-80
2023/07/21 00:58:43;;;;;;;3.30;2.03;;;18.60;1.00;;;;;;5031566;28;20037;-80
2023/07/21 01:01:09;;;;;;;2.97;1.98;;;18.60;1.00;;;;;;5039994;28;20040;-76
2023/07/21 01:03:36;;;;;;;4.78;2.50;;;18.50;13.90;;;;;;5030671;28;20046;-77
2023/07/21 01:06:03;;;;;;;4.05;1.90;;;18.40;23.30;;;;;;5035055;28;20052;-78
2023/07/21 01:08:30;;;;;;;3.92;2.08;;;18.40;33.90;;;;;;5051014;28;20394;-79
2023/07/21 01:10:56;;;;;;;3.30;2.00;;;18.40;48.20;;;;;;5052591;28;20403;-77
2023/07/21 01:13:22;;;;;;;2.55;1.92;;;18.40;35.60;;;;;;5049708;28;20052;-77
2023/07/21 01:15:50;;;;;;;2.78;2.15;;;18.40;40.90;;;;;;5038259;28;20029;-77
2023/07/21 01:18:20;;;;;;;5.40;2.80;;;18.50;27.40;;;;;;5036678;28;20029;-76
2023/07/21 01:20:47;;;;;;;2.33;1.77;;;18.50;8.90;;;;;;5034330;28;20037;-79
2023/07/21 01:23:20;;;;;;;2.95;2.03;;;18.40;6.40;;;;;;5030627;28;20144;-77
2023/07/21 01:25:48;;;;;;;5.03;2.03;;;18.30;23.10;;;;;;5035164;28;20052;-77
2023/07/21 01:28:16;;;;;;;2.88;2.03;;;18.30;42.60;;;;;;5032718;28;20049;-75
2023/07/21 01:30:45;;;;;;;3.33;2.20;;;18.20;30.30;;;;;;5051616;28;20056;-85
2023/07/21 01:33:13;;;;;;;4.63;2.28;;;18.10;38.70;;;;;;5034663;28;20053;-76
2023/07/21 01:35:41;;;;;;;2.42;1.52;;;18.10;44.00;;;;;;5035733;28;20025;-77
2023/07/21 01:38:10;;;;;;;4.25;2.05;;;18.00;61.10;;;;;;5030689;28;20064;-75
2023/07/21 01:40:39;;;;;;;3.40;2.00;;;17.90;74.70;;;;;;5030676;28;20045;-76
2023/07/21 01:43:05;;;;;;;3.28;2.17;;;17.80;86.30;;;;;;5031290;28;20033;-77
2023/07/21 01:45:32;;;;;;;4.75;1.73;;;17.90;96.60;;;;;;5037436;28;20041;-78
2023/07/21 01:47:58;;;;;;;3.13;2.13;;;18.00;95.90;;;;;;5033996;28;20339;-77
2023/07/21 01:50:26;;;;;;;3.85;2.10;;;17.90;89.10;;;;;;5030266;28;20029;-84
2023/07/21 01:52:53;;;;;;;4.68;2.38;;;17.80;97.10;;;;;;5050164;28;20037;-78
2023/07/21 01:55:36;;;;;;;4.60;2.13;;;17.60;99.90;;;;;;5033669;28;20048;-76
2023/07/21 01:58:05;;;;;;;4.20;2.35;;;17.60;99.90;;;;;;5050483;28;20045;-77
2023/07/21 02:00:34;;;;;;;3.70;2.17;;;17.50;99.90;;;;;;5033360;28;20120;-81
2023/07/21 02:03:01;;;;;;;3.60;2.28;;;17.50;99.90;;;;;;5050569;28;20064;-78
2023/07/21 02:05:27;;;;;;;2.63;1.70;;;17.40;99.90;;;;;;5032072;28;20041;-78
2023/07/21 02:07:54;;;;;;;5.93;2.70;;;17.40;99.90;;;;;;5033270;28;20462;-76
2023/07/21 02:10:21;;;;;;;3.25;2.33;;;17.40;99.90;;;;;;5031245;28;20046;-82
2023/07/21 02:13:08;;;;;;;3.67;2.33;;;17.40;99.90;;;;;;5034421;28;20040;-76
2023/07/21 02:15:34;;;;;;;4.07;2.15;;;17.40;99.90;;;;;;5033733;28;20048;-77
2023/07/21 02:18:00;;;;;;;8.05;2.63;;;17.40;99.90;;;;;;5033856;28;20052;-78
2023/07/21 02:20:26;;;;;;;2.45;2.15;;;17.30;99.90;;;;;;5045951;28;20505;-81
2023/07/21 02:22:52;;;;;;;4.03;2.25;;;17.20;99.90;;;;;;5036490;28;20686;-77
2023/07/21 02:25:18;;;;;;;2.78;2.47;;;17.30;99.90;;;;;;5048138;28;20033;-78
2023/07/21 02:27:45;;;;;;;4.35;2.20;;;17.20;99.90;;;;;;5045629;28;20040;-82
2023/07/21 02:30:11;;;;;;;3.88;2.38;;;17.10;99.90;;;;;;5034649;28;20037;-78
2023/07/21 02:32:38;;;;;;;3.70;2.45;;;17.00;99.90;;;;;;5033208;28;20038;-77
2023/07/21 02:35:06;;;;;;;4.85;2.95;;;17.00;99.90;;;;;;5032810;28;20091;-78
2023/07/21 02:37:32;;;;;;;2.60;2.05;;;17.10;99.90;;;;;;5037278;28;20398;-77
2023/07/21 02:39:58;;;;;;;4.38;2.88;;;17.10;99.90;;;;;;5036854;28;20030;-86
2023/07/21 02:42:25;;;;;;;5.53;2.80;;;17.20;99.90;;;;;;5048730;28;20037;-78
2023/07/21 02:44:51;;;;;;;4.22;2.67;;;17.10;99.90;;;;;;5045537;28;20052;-79
2023/07/21 02:47:17;;;;;;;5.15;2.58;;;16.80;99.90;;;;;;5031212;28;20045;-79
2023/07/21 02:49:44;;;;;;;3.13;2.00;;;16.70;99.90;;;;;;5031075;28;20470;-78
2023/07/21 02:52:11;;;;;;;3.05;2.65;;;16.70;99.90;;;;;;5031799;28;20044;-77
2023/07/21 02:54:39;;;;;;;4.68;3.22;;;16.60;99.90;;;;;;5035352;28;20136;-78
2023/07/21 02:57:07;;;;;;;5.18;2.88;;;16.60;99.90;;;;;;5052188;28;20474;-78
2023/07/21 02:59:34;;;;;;;3.88;3.30;;;16.60;99.90;;;;;;5034458;28;20064;-76
2023/07/21 03:02:01;;;;;;;5.75;3.08;;;16.80;99.90;;;;;;5024997;28;20057;-79
2023/07/21 03:04:37;;;;;;;3.80;2.75;;;16.80;99.90;;;;;;5033357;28;20044;-78
2023/07/21 03:07:05;;;;;;;3.38;2.90;;;16.80;99.90;;;;;;5050852;28;20143;-77
2023/07/21 03:09:31;;;;;;;3.67;2.50;;;16.80;99.90;;;;;;5050382;28;20041;-77
2023/07/21 03:11:59;;;;;;;5.10;2.65;;;16.80;99.90;;;;;;5022591;28;20037;-79
2023/07/21 03:14:48;;;;;;;3.65;2.83;;;16.80;99.90;;;;;;5037026;28;20045;-77
2023/07/21 03:17:15;;;;;;;4.78;3.22;;;16.80;99.90;;;;;;5021861;28;20045;-80
2023/07/21 03:19:41;;;;;;;5.68;2.80;;;16.80;99.90;;;;;;5051827;28;20052;-77
2023/07/21 03:22:15;;;;;;;6.57;3.53;;;16.80;99.90;;;;;;5050717;28;20045;-78
2023/07/21 03:24:43;;;;;;;5.03;3.08;;;16.80;99.90;;;;;;5052486;28;20045;-78
2023/07/21 03:27:12;;;;;;;3.97;3.40;;;16.70;99.90;;;;;;5056420;28;20049;-77
2023/07/21 03:29:39;;;;;;;5.00;3.63;;;16.80;1.00;;;;;;5033894;28;20053;-80
2023/07/21 03:32:07;;;;;;;5.82;3.70;;;16.80;99.90;;;;;;5031474;28;20367;-76
2023/07/21 03:34:35;;;;;;;5.18;4.35;;;16.60;1.00;;;;;;5034136;28;20045;-77
2023/07/21 03:37:06;;;;;;;5.30;4.40;;;16.70;1.00;;;;;;5049260;28;20044;-76
2023/07/21 03:39:32;;;;;;;6.55;4.60;;;16.60;1.00;;;;;;5038196;28;20040;-77
2023/07/21 03:41:58;;;;;;;4.53;4.10;;;16.40;1.00;;;;;;5050840;28;20029;-77
2023/07/21 03:44:25;;;;;;;5.43;4.38;;;16.40;1.00;;;;;;5035556;28;20090;-77
2023/07/21 03:46:51;;;;;;;6.13;4.63;;;16.50;1.00;;;;;;5050042;28;20390;-78
2023/07/21 03:49:31;;;;;;;5.90;4.50;;;16.40;1.00;;;;;;5055837;28;20059;-77
2023/07/21 03:52:04;;;;;;;6.55;5.15;;;16.40;1.00;;;;;;5037332;28;20474;-77
2023/07/21 03:54:30;;;;;;;5.38;4.88;;;16.60;1.00;;;;;;5052115;28;20049;-79
2023/07/21 03:56:57;;;;;;;8.02;5.07;;;16.60;1.00;;;;;;5041348;28;20479;-78
2023/07/21 03:59:23;;;;;;;6.90;5.20;;;16.60;1.00;;;;;;5032808;28;20057;-77
2023/07/21 04:01:53;;;;;;;8.13;5.88;;;16.60;40.30;;;;;;5030395;28;20368;-80
2023/07/21 04:04:19;;;;;;;8.20;5.63;;;16.50;99.90;;;;;;5031923;28;20041;-76
2023/07/21 04:06:45;;;;;;;9.40;6.43;;;16.40;99.90;;;;;;5036928;28;20497;-77
2023/07/21 04:09:14;;;;;;;8.63;6.15;;;16.50;96.40;;;;;;5025419;28;20819;-76
2023/07/21 04:11:41;;;;;;;6.00;5.40;;;16.60;99.90;;;;;;5051502;28;20045;-76
2023/07/21 04:14:09;;;;;;;7.65;5.32;;;16.70;86.90;;;;;;5069593;28;20048;-77
2023/07/21 04:16:35;;;;;;;6.28;5.68;;;16.80;61.40;;;;;;5035685;28;20034;-77
2023/07/21 04:19:02;;;;;;;8.23;5.13;;;16.80;54.30;;;;;;5035484;28;20477;-76
2023/07/21 04:21:29;;;;;;;8.18;5.90;;;16.80;53.90;;;;;;5044267;28;20044;-79
2023/07/21 04:23:55;;;;;;;5.95;5.32;;;16.80;84.00;;;;;;5038620;28;20055;-78
2023/07/21 04:26:24;;;;;;;8.18;6.40;;;16.80;99.90;;;;;;5055642;28;20057;-78
2023/07/21 04:28:51;;;;;;;7.40;6.20;;;16.90;99.90;;;;;;5035645;28;20049;-90
2023/07/21 04:31:21;;;;;;;7.90;5.82;;;17.00;99.90;;;;;;5055023;28;20045;-78
2023/07/21 04:34:13;;;;;;;7.38;5.75;;;16.90;99.90;;;;;;5029862;28;20065;-78
2023/07/21 04:36:43;;;;;;;7.87;6.70;;;16.80;99.90;;;;;;5036848;28;20386;-79
2023/07/21 04:39:29;;;;;;;8.85;6.53;;;16.80;99.90;;;;;;5044976;28;20272;-79
2023/07/21 04:41:57;;;;;;;7.13;6.43;;;16.60;99.90;;;;;;5057240;28;20044;-79
2023/07/21 04:44:23;;;;;;;7.88;7.13;;;16.50;99.90;;;;;;5033177;28;20057;-80
2023/07/21 04:46:49;;;;;;;7.13;6.30;;;16.40;99.90;;;;;;5049099;28;20041;-81
2023/07/21 04:49:19;;;;;;;9.60;7.70;;;16.40;99.90;;;;;;5051469;28;20044;-78
2023/07/21 04:51:47;;;;;;;10.93;7.10;;;16.40;99.90;;;;;;5031151;28;20038;-79
2023/07/21 04:54:13;;;;;;;7.40;6.57;;;16.50;99.90;;;;;;5056981;28;20041;-80
2023/07/21 04:56:39;;;;;;;6.80;6.20;;;16.50;99.90;;;;;;5033395;28;20037;-78
2023/07/21 04:59:08;;;;;;;7.80;7.00;;;16.40;99.90;;;;;;5031261;28;20045;-78
2023/07/21 05:01:34;;;;;;;6.80;5.95;;;16.30;99.90;;;;;;5032906;28;20463;-79
2023/07/21 05:04:01;;;;;;;9.23;8.18;;;16.40;99.90;;;;;;5035457;28;20052;-78
2023/07/21 05:06:27;;;;;;;9.13;8.23;;;16.40;99.90;;;;;;5049813;28;20052;-77
2023/07/21 05:08:54;;;;;;;8.43;7.63;;;16.60;99.90;;;;;;5035488;28;20421;-80
2023/07/21 05:11:21;;;;;;;7.95;6.93;;;16.60;99.90;;;;;;5048057;28;20040;-77
2023/07/21 05:13:48;;;;;;;8.50;7.53;;;16.60;99.90;;;;;;5029082;28;20042;-80
2023/07/21 05:16:37;;;;;;;8.00;6.73;;;16.70;99.90;;;;;;5019955;28;20049;-77
2023/07/21 05:19:41;;;;;;;8.27;7.40;;;16.70;99.90;;;;;;5021005;28;20292;-77
2023/07/21 05:22:28;;;;;;;8.27;7.20;;;16.70;99.90;;;;;;5010427;28;20048;-79
2023/07/21 05:25:08;;;;;;;9.02;8.13;;;16.90;99.90;;;;;;5023892;28;20060;-78
2023/07/21 05:27:38;;;;;;;8.18;7.35;;;17.00;99.90;;;;;;5046938;28;20048;-78
2023/07/21 05:30:11;;;;;;;9.10;7.00;;;17.10;99.90;;;;;;5037243;28;20128;-78
2023/07/21 05:32:41;;;;;;;10.20;7.07;;;17.20;99.90;;;;;;5042936;28;20494;-77
2023/07/21 05:35:14;;;;;;;7.68;6.88;;;17.40;99.90;;;;;;5030627;28;20053;-77
2023/07/21 05:37:43;;;;;;;7.60;5.82;;;17.60;99.90;;;;;;5032129;28;20060;-81
2023/07/21 05:40:11;;;;;;;6.40;5.80;;;17.70;99.90;;;;;;5037140;28;20025;-80
2023/07/21 05:42:37;;;;;;;8.40;6.50;;;17.80;99.90;;;;;;5047181;28;20042;-78
2023/07/21 05:45:05;;;;;;;7.30;6.57;;;17.90;99.90;;;;;;5049685;28;20393;-79
2023/07/21 05:47:32;;;;;;;7.97;6.82;;;17.90;99.90;;;;;;5032516;28;20049;-80
2023/07/21 05:50:00;;;;;;;9.70;6.43;;;17.90;99.90;;;;;;5034205;28;20041;-79
2023/07/21 05:52:28;;;;;;;8.63;6.82;;;17.90;99.90;;;;;;5031321;28;20057;-79
2023/07/21 05:54:54;;;;;;;7.88;6.80;;;17.80;99.90;;;;;;5039593;28;20359;-88
2023/07/21 05:57:26;;;;;;;7.32;6.22;;;17.80;99.90;;;;;;5055771;28;20041;-79
2023/07/21 05:59:52;;;;;;;8.23;6.28;;;17.80;99.90;;;;;;5047585;28;20053;-79
2023/07/21 06:02:19;;;;;;;7.93;6.32;;;17.70;99.90;;;;;;5033931;28;20050;-77
2023/07/21 06:04:56;;;;;;;9.15;6.13;;;17.70;99.90;;;;;;5027791;28;20466;-80
2023/07/21 06:07:43;;;;;;;8.20;6.03;;;17.70;99.90;;;;;;5039228;28;20040;-80
2023/07/21 06:10:34;;;;;;;9.75;5.55;;;17.60;99.90;;;;;;5028100;28;20025;-78
2023/07/21 06:13:22;;;;;;;6.20;5.53;;;17.70;99.90;;;;;;5051541;28;20041;-78
2023/07/21 06:15:52;;;;;;;6.32;5.68;;;17.90;99.90;;;;;;5026603;28;20034;-78
2023/07/21 06:18:27;;;;;;;6.75;6.13;;;18.00;99.90;;;;;;5028904;28;20096;-78
2023/07/21 06:20:53;;;;;;;9.55;6.28;;;18.10;99.90;;;;;;5036594;28;20068;-79
2023/07/21 06:23:20;;;;;;;6.80;6.10;;;18.10;99.90;;;;;;5032114;28;20431;-79
2023/07/21 06:25:47;;;;;;;8.05;6.70;;;18.10;99.90;;;;;;5040632;28;20045;-79
2023/07/21 06:28:16;;;;;;;7.95;6.07;;;18.20;76.40;;;;;;5048196;28;20037;-79
2023/07/21 06:30:42;;;;;;;7.47;6.13;;;18.30;45.90;;;;;;5038982;28;20382;-79
2023/07/21 06:33:13;;;;;;;5.90;5.30;;;18.30;1.00;;;;;;5056686;28;20041;-81
2023/07/21 06:35:49;;;;;;;7.72;6.45;;;18.30;1.00;;;;;;5034770;28;20049;-80
2023/07/21 06:38:41;;;;;;;8.63;5.53;;;18.30;1.00;;;;;;5006153;28;20037;-80
2023/07/21 06:41:11;;;;;;;6.65;5.07;;;18.40;1.00;;;;;;5030652;28;20052;-80
2023/07/21 06:43:43;;;;;;;5.85;4.68;;;18.50;1.00;;;;;;5039331;28;20034;-77
2023/07/21 06:46:27;;;;;;;7.60;5.43;;;18.60;1.00;;;;;;5023763;28;20041;-79
2023/07/21 06:49:07;;;;;;;5.27;4.60;;;18.70;1.00;;;;;;5060427;28;20041;-80
2023/07/21 06:51:45;;;;;;;6.05;4.95;;;18.90;1.00;;;;;;5032786;28;20382;-79
2023/07/21 06:54:12;;;;;;;7.88;5.03;;;19.10;1.00;;;;;;5047302;28;20056;-79
2023/07/21 06:56:38;;;;;;;5.80;4.43;;;19.20;1.00;;;;;;5056112;28;20037;-79
2023/07/21 06:59:05;;;;;;;7.07;5.10;;;19.20;99.90;;;;;;5035421;28;20053;-78
2023/07/21 07:01:31;;;;;;;5.55;4.35;;;19.30;1.00;;;;;;5051213;28;20033;-79
2023/07/21 07:04:00;;;;;;;5.50;4.50;;;19.40;99.90;;;;;;5044291;28;20610;-82
2023/07/21 07:06:28;;;;;;;8.48;4.05;;;19.40;99.90;;;;;;5012268;28;20029;-78
2023/07/21 07:08:55;;;;;;;6.88;4.63;;;19.40;99.90;;;;;;5040757;28;20052;-78
2023/07/21 07:11:22;;;;;;;5.70;4.85;;;19.50;99.90;;;;;;5043461;28;20478;-78
2023/07/21 07:13:48;;;;;;;6.40;4.20;;;19.50;99.90;;;;;;5036111;28;20037;-80
2023/07/21 07:16:14;;;;;;;8.43;5.35;;;19.50;1.00;;;;;;5039732;28;20046;-79
2023/07/21 07:18:42;;;;;;;7.03;5.57;;;19.50;1.00;;;;;;5047096;28;20475;-79
2023/07/21 07:21:08;;;;;;;8.00;4.68;;;19.60;1.00;;;;;;5029566;28;20033;-78
2023/07/21 07:23:34;;;;;;;8.30;5.43;;;19.40;99.90;;;;;;5028284;28;20033;-78
2023/07/21 07:26:01;;;;;;;6.30;4.95;;;19.20;99.90;;;;;;5030694;28;20422;-77
2023/07/21 07:28:28;;;;;;;6.93;5.13;;;19.00;1.00;;;;;;5032594;28;20041;-78
2023/07/21 07:30:54;;;;;;;7.18;5.18;;;19.00;1.00;;;;;;5030154;28;20037;-79
2023/07/21 07:33:20;;;;;;;7.57;4.60;;;19.00;1.00;;;;;;5025456;28;20056;-79
2023/07/21 07:35:51;;;;;;;7.82;5.10;;;19.20;1.00;;;;;;5029530;28;20041;-78
2023/07/21 07:38:20;;;;;;;7.07;5.20;;;19.30;1.00;;;;;;5029021;28;20029;-76
2023/07/21 07:40:47;;;;;;;7.32;5.07;;;19.30;1.00;;;;;;5033669;28;20041;-78
2023/07/21 07:43:13;;;;;;;10.50;5.70;;;19.40;99.90;;;;;;5030968;28;20029;-78
2023/07/21 07:45:40;;;;;;;7.75;5.03;;;19.50;1.00;;;;;;5029290;28;20033;-77
2023/07/21 07:48:09;;;;;;;7.53;4.65;;;19.80;99.90;;;;;;5039400;28;20030;-78
2023/07/21 07:50:42;;;;;;;7.00;4.40;;;19.80;99.90;;;;;;5027689;28;20038;-76
2023/07/21 07:53:09;;;;;;;7.50;4.22;;;19.90;99.90;;;;;;5036462;28;20040;-78
2023/07/21 07:55:42;;;;;;;6.57;4.60;;;20.20;99.90;;;;;;5039325;28;20487;-77
2023/07/21 07:58:09;;;;;;;6.22;5.03;;;20.20;99.90;;;;;;5045067;28;20033;-78
2023/07/21 08:00:38;;;;;;;7.82;5.30;;;20.30;99.90;;;;;;5042644;28;20053;-77
2023/07/21 08:03:09;;;;;;;6.80;4.68;;;20.40;99.90;;;;;;5034856;28;20033;-78
2023/07/21 08:05:37;;;;;;;8.70;4.30;;;20.50;99.90;;;;;;5033982;28;20060;-78
2023/07/21 08:08:04;;;;;;;7.20;3.53;;;20.80;99.90;;;;;;5042402;28;20089;-79
2023/07/21 08:10:31;;;;;;;7.55;4.55;;;20.90;99.90;;;;;;5035256;28;20041;-76
2023/07/21 08:12:59;;;;;;;9.13;3.45;;;20.80;99.90;;;;;;5045660;28;20030;-78
2023/07/21 08:15:25;;;;;;;6.00;3.65;;;20.80;99.90;;;;;;5031138;28;20041;-77
2023/07/21 08:17:53;;;;;;;6.05;3.80;;;20.90;99.90;;;;;;5035985;28;20032;-78
2023/07/21 08:20:20;;;;;;;6.13;3.58;;;20.90;99.90;;;;;;5024280;28;20029;-79
2023/07/21 08:22:47;;;;;;;8.35;3.88;;;21.00;99.90;;;;;;5031543;28;20042;-78
2023/07/21 08:25:13;;;;;;;8.05;4.43;;;21.50;98.10;;;;;;5045857;28;20040;-78
2023/07/21 08:27:40;;;;;;;6.28;4.10;;;21.70;96.40;;;;;;5040193;28;20025;-78
2023/07/21 08:30:09;;;;;;;7.85;3.83;;;21.50;54.10;;;;;;5034066;28;20033;-78
2023/07/21 08:32:37;;;;;;;5.70;3.58;;;21.50;94.60;;;;;;5032684;28;20033;-80
2023/07/21 08:35:04;;;;;;;8.60;3.17;;;21.40;37.70;;;;;;5038819;28;20481;-87
2023/07/21 08:37:31;;;;;;;8.13;3.28;;;21.40;47.10;;;;;;5028183;28;20030;-75
2023/07/21 08:39:57;;;;;;;5.35;2.75;;;21.70;37.10;;;;;;5040091;28;20025;-77
2023/07/21 08:42:25;;;;;;;5.10;3.22;;;21.50;60.10;;;;;;5035519;28;20033;-79
2023/07/21 08:44:55;;;;;;;6.85;3.25;;;21.50;98.10;;;;;;5037571;28;20049;-79
2023/07/21 08:47:22;;;;;;;4.18;2.72;;;22.00;52.80;;;;;;5033257;28;20034;-76
2023/07/21 08:49:49;;;;;;;4.72;2.60;;;21.90;21.70;;;;;;5038090;28;20033;-75
2023/07/21 08:52:16;;;;;;;5.45;2.55;;;22.60;1.00;;;;;;5035284;28;20047;-77
2023/07/21 08:54:45;;;;;;;4.50;2.70;;;23.40;1.00;;;;;;5039514;28;20028;-80
2023/07/21 08:57:12;;;;;;;5.88;2.38;;;23.60;1.00;;;;;;5029976;28;20037;-76
2023/07/21 08:59:41;;;;;;;5.68;2.75;;;23.40;1.00;;;;;;5033007;28;20056;-76
2023/07/21 09:02:08;;;;;;;3.77;1.80;;;23.70;1.00;;;;;;5037317;28;20478;-75
2023/07/21 09:04:34;;;;;;;5.93;2.50;;;23.30;99.90;;;;;;5038270;28;20469;-76
2023/07/21 09:07:02;;;;;;;4.05;2.15;;;23.10;1.00;;;;;;5033811;28;20518;-76
2023/07/21 09:09:30;;;;;;;6.13;2.33;;;22.90;1.00;;;;;;5037978;28;20037;-76
2023/07/21 09:12:05;;;;;;;4.40;2.28;;;22.70;1.00;;;;;;5034731;28;20064;-76
2023/07/21 09:14:43;;;;;;;3.28;1.58;;;22.80;1.00;;;;;;5033711;28;20044;-75
2023/07/21 09:17:12;;;;;;;3.60;1.42;;;22.70;1.00;;;;;;5032588;28;20034;-76
2023/07/21 09:19:43;;;;;;;3.90;1.85;;;22.30;1.00;;;;;;5038592;28;20029;-75
2023/07/21 09:22:11;;;;;;;5.03;1.65;;;22.40;1.00;;;;;;5033984;28;20036;-76
2023/07/21 09:24:49;;;;;;;4.15;1.88;;;22.30;1.00;;;;;;5033510;28;20398;-79
2023/07/21 09:27:17;;;;;;;3.17;1.50;;;22.40;1.00;;;;;;5033065;28;20033;-76
2023/07/21 09:29:44;;;;;;;6.30;2.33;;;22.40;1.00;;;;;;5034215;28;20029;-76
2023/07/21 09:32:15;;;;;;;2.92;1.73;;;22.60;1.00;;;;;;5035302;28;20034;-76
2023/07/21 09:34:59;;;;;;;5.45;1.85;;;22.70;99.90;;;;;;5028259;28;20037;-77
2023/07/21 09:37:27;;;;;;;4.25;2.00;;;22.80;1.00;;;;;;5037904;28;20257;-81
2023/07/21 09:39:58;;;;;;;2.40;1.70;;;23.20;99.90;;;;;;5033837;28;20036;-78
2023/07/21 09:42:26;;;;;;;3.17;1.20;;;23.30;99.90;;;;;;5032373;28;20033;-78
2023/07/21 09:44:54;;;;;;;3.13;1.65;;;23.40;99.90;;;;;;5028237;28;20038;-82
2023/07/21 09:47:21;;;;;;;3.58;1.58;;;23.20;99.90;;;;;;5038553;28;20040;-79
2023/07/21 09:49:53;;;;;;;3.45;1.70;;;23.10;99.90;;;;;;5035493;28;20037;-77
2023/07/21 09:52:21;;;;;;;2.53;1.40;;;23.70;99.90;;;;;;5033539;28;20044;-79
2023/07/21 09:55:06;;;;;;;3.40;1.58;;;24.30;99.90;;;;;;5033809;28;20052;-77
2023/07/21 09:57:35;;;;;;;2.80;1.65;;;24.30;99.90;;;;;;5037818;28;20040;-77
2023/07/21 10:00:07;;;;;;;2.45;1.40;;;23.90;99.90;;;;;;5032926;28;20056;-78
2023/07/21 10:02:42;;;;;;;5.43;1.45;;;23.90;99.90;;;;;;5043075;28;20041;-78
2023/07/21 10:05:10;;;;;;;2.72;1.40;;;24.10;99.90;;;;;;5034079;28;20034;-79
2023/07/21 10:07:48;;;;;;;7.15;1.88;;;24.10;99.90;;;;;;5047568;28;20033;-78
2023/07/21 10:10:16;;;;;;;4.40;1.52;;;23.60;99.90;;;;;;5024974;28;20470;-79
2023/07/21 10:12:54;;;;;;;4.35;1.50;;;23.70;99.90;;;;;;5040363;28;20045;-78
2023/07/21 10:15:31;;;;;;;3.88;1.88;;;24.10;99.90;;;;;;5030835;28;20056;-78
2023/07/21 10:18:14;;;;;;;2.78;1.50;;;24.60;99.90;;;;;;5032422;28;20033;-80
2023/07/21 10:20:49;;;;;;;3.28;1.35;;;24.50;99.90;;;;;;5037078;28;20033;-76
2023/07/21 10:23:18;;;;;;;3.92;1.63;;;24.60;99.90;;;;;;5033418;28;20029;-78
2023/07/21 10:26:05;;;;;;;2.55;1.38;;;24.90;99.90;;;;;;5027906;28;20056;-78
2023/07/21 10:28:37;;;;;;;6.13;1.58;;;24.70;99.90;;;;;;5037795;28;20041;-79
2023/07/21 10:31:25;;;;;;;5.03;1.67;;;24.50;99.90;;;;;;5031798;28;20045;-78
2023/07/21 10:34:02;;;;;;;5.55;1.65;;;24.80;99.90;;;;;;5035046;28;20033;-78
2023/07/21 10:36:48;;;;;;;4.90;1.40;;;25.50;99.90;;;;;;5033121;28;20500;-79
2023/07/21 10:39:16;;;;;;;2.67;1.60;;;25.60;99.90;;;;;;5023382;28;20041;-80
2023/07/21 10:41:47;;;;;;;2.60;1.25;;;25.20;99.90;;;;;;5031541;28;20041;-80
2023/07/21 10:44:14;;;;;;;3.17;1.30;;;24.60;99.90;;;;;;5034635;28;20501;-81
2023/07/21 10:46:44;;;;;;;2.80;1.30;;;24.60;99.90;;;;;;5036969;28;20045;-79
2023/07/21 10:49:14;;;;;;;3.67;1.38;;;25.20;99.90;;;;;;5032487;28;20483;-84
2023/07/21 10:51:42;;;;;;;3.92;0.90;;;25.40;99.90;;;;;;5051376;28;20045;-81
2023/07/21 10:54:10;;;;;;;6.28;1.27;;;25.30;99.90;;;;;;5033566;28;20368;-82
2023/07/21 10:56:44;;;;;;;8.48;1.48;;;24.90;99.90;;;;;;5030911;28;20044;-84
2023/07/21 10:59:13;;;;;;;3.53;1.75;;;25.10;99.90;;;;;;5033731;28;20045;-83
2023/07/21 11:01:44;;;;;;;5.03;1.10;;;24.80;99.90;;;;;;5040256;28;20045;-80
2023/07/21 11:04:11;;;;;;;5.50;1.52;;;24.40;99.90;;;;;;5036430;28;20036;-88
2023/07/21 11:06:42;;;;;;;3.10;1.35;;;24.60;99.90;;;;;;5033571;28;20493;-81
2023/07/21 11:09:12;;;;;;;2.95;1.50;;;24.50;99.90;;;;;;5031984;28;20050;-80
2023/07/21 11:11:39;;;;;;;;;;;24.10;99.90;;;;;;5036215;28;20037;-82
2023/07/21 11:14:10;;;;;;;4.88;1.20;;;23.90;99.90;;;;;;5034614;28;19909;-82
2023/07/21 11:16:47;;;;;;;3.30;1.55;;;23.60;99.90;;;;;;5034779;28;20033;-83
2023/07/21 11:19:15;;;;;;;2.90;1.38;;;23.40;99.90;;;;;;5034001;28;20037;-80
2023/07/21 11:21:42;;;;;;;3.92;1.50;;;23.30;99.90;;;;;;5043742;28;20041;-79
2023/07/21 11:24:08;;;;;;;3.30;1.33;;;23.20;99.90;;;;;;5038652;28;20036;-80
2023/07/21 11:26:36;;;;;;;3.63;1.80;;;23.20;99.90;;;;;;5038200;28;20045;-80
2023/07/21 11:29:08;;;;;;;2.60;1.50;;;23.20;99.90;;;;;;5038839;28;20056;-79
2023/07/21 11:31:36;;;;;;;4.93;1.13;;;23.00;99.90;;;;;;5038121;28;20052;-79
2023/07/21 11:34:16;;;;;;;2.17;1.23;;;23.00;99.90;;;;;;5035900;28;20037;-80
2023/07/21 11:36:45;;;;;;;2.93;1.40;;;23.00;99.90;;;;;;5037975;28;20324;-80
2023/07/21 11:39:14;;;;;;;1.55;0.90;;;23.00;99.90;;;;;;5039679;28;20414;-85
2023/07/21 11:41:40;;;;;;;4.43;1.40;;;23.20;99.90;;;;;;5030336;28;20052;-83
2023/07/21 11:44:17;;;;;;;3.53;1.50;;;23.10;99.90;;;;;;5048635;28;20045;-82
2023/07/21 11:47:10;;;;;;;2.80;1.27;;;22.90;99.90;;;;;;5030058;28;20042;-82
2023/07/21 11:49:40;;;;;;;6.57;3.45;;;22.90;99.90;;;;;;5027754;28;20041;-81
2023/07/21 11:52:08;;;;;;;7.32;3.80;;;23.10;99.90;;;;;;5033502;28;20124;-78
2023/07/21 11:54:39;;;;;;;5.28;2.22;;;23.20;99.90;;;;;;5034616;28;20040;-78
2023/07/21 11:57:06;;;;;;;7.57;3.83;;;23.30;99.90;;;;;;5035081;28;20052;-80
2023/07/21 11:59:33;;;;;;;10.13;3.42;;;23.30;99.90;;;;;;5034607;28;20037;-78
2023/07/21 12:02:02;;;;;;;4.82;2.25;;;23.30;99.90;;;;;;5037436;28;20040;-78
2023/07/21 12:04:29;;;;;;;2.28;1.38;;;23.30;99.90;;;;;;5036847;28;20034;-78
2023/07/21 12:06:55;;;;;;;3.15;1.55;;;23.30;99.90;;;;;;5034398;28;20045;-79
2023/07/21 12:09:21;;;;;;;2.35;1.02;;;23.00;99.90;;;;;;5035657;28;20037;-78
2023/07/21 12:11:48;;;;;;;4.25;1.17;;;22.80;99.90;;;;;;5036762;28;20025;-82
2023/07/21 12:14:14;;;;;;;2.65;0.98;;;22.70;99.90;;;;;;5038715;28;20040;-83
2023/07/21 12:16:40;;;;;;;3.60;1.70;;;22.60;99.90;;;;;;5037123;28;20045;-77
2023/07/21 12:19:07;;;;;;;2.47;1.50;;;22.60;99.90;;;;;;5035018;28;20123;-79
2023/07/21 12:21:34;;;;;;;2.67;1.20;;;22.60;99.90;;;;;;5035019;28;20036;-79
2023/07/21 12:24:01;;;;;;;3.08;1.27;;;22.60;99.90;;;;;;5029370;28;20025;-79
2023/07/21 12:26:27;;;;;;;2.10;1.27;;;22.50;99.90;;;;;;5027651;28;20406;-78
2023/07/21 12:28:53;;;;;;;1.75;1.02;;;22.40;99.90;;;;;;5030963;28;20032;-77
2023/07/21 12:31:20;;;;;;;2.45;1.17;;;22.30;99.90;;;;;;5036958;28;20037;-77
2023/07/21 12:33:50;;;;;;;2.95;0.90;;;22.30;99.90;;;;;;5035752;28;20040;-79
2023/07/21 12:36:17;;;;;;;2.70;1.20;;;22.30;99.90;;;;;;5028335;28;20041;-79
2023/07/21 12:38:44;;;;;;;5.88;2.35;;;22.20;99.90;;;;;;5031894;28;20044;-77
2023/07/21 12:41:11;;;;;;;3.17;1.48;;;22.20;99.90;;;;;;5029785;28;20048;-79
2023/07/21 12:43:37;;;;;;;4.05;1.80;;;22.30;99.90;;;;;;5041565;28;20037;-82
2023/07/21 12:46:04;;;;;;;3.80;1.27;;;22.30;99.90;;;;;;5028700;28;20048;-78
2023/07/21 12:48:32;;;;;;;5.10;1.50;;;22.30;99.90;;;;;;5033654;28;20052;-82
2023/07/21 12:50:58;;;;;;;6.20;2.22;;;22.20;99.90;;;;;;5031138;28;20398;-80
2023/07/21 12:53:25;;;;;;;4.10;1.40;;;22.00;99.90;;;;;;5034850;28;20521;-75
2023/07/21 12:55:51;;;;;;;4.72;2.00;;;22.00;99.90;;;;;;5032176;28;20041;-82
2023/07/21 12:58:18;;;;;;;7.15;3.17;;;21.90;99.90;;;;;;5047810;28;20034;-76
2023/07/21 13:00:45;;;;;;;7.38;2.92;;;21.80;99.90;;;;;;5048747;28;20072;-77
2023/07/21 13:03:12;;;;;;;3.45;1.45;;;21.70;99.90;;;;;;5039553;28;20044;-78